Melbourne International Airport Melbourne US
ICAO: KMLB
IATA: MLB
Category: Medium
Scheduled Services: Yes

Elevation: 33 ft
TransAlt. 18000 ft.

Airport Communications:
ORLANDO APP/DEP:132.65
ATIS:132.55
CLNC DEL:121.9
CTAF:118.2
GND:121.9
GRUMMAN OPS:123.2
ST PETERSBURG RDO:122.6
TWR:118.2
UNICOM:122.95

KMLB Zoom In..

Runways:

(A) RW 05 length 3001 ft width 75 ft
---- / hdg 49

(B) RW 09L length 6000 ft width 150 ft
---- / hdg 94

(C) RW 09R length 10181 ft width 150 ft
ILS 108.30 / hdg 94

(D) RW 23 length 3001 ft width 75 ft
---- / hdg 229

(E) RW 27L length 10181 ft width 150 ft
---- / hdg 274

(F) RW 27R length 6000 ft width 150 ft
---- / hdg 274

Location; KMLB
Day. 23 / Time. 21.53 Zulu
* Altimeter: 30.00
* Temperature: 27° c. 80.6°f.
* Wind from: 230° Speed 06 kn.
Dewpoint: 21° c.
Visibility: 10 Statute Miles.
Clouds: Few 2500 ft.

KMLB 232153Z 23006KT 10SM FEW025 27/21 A3000 RMK AO2 SLP156 T02720206


Wind From 230°
Speed 06 kn.

YouTube Music Video
 
jpsmedia.com for Web Design  worldairports.se 2018   terms of use